createdAt,value
2023-01-23T00:02:25.611Z,103186.94
2023-01-23T00:05:11.304Z,103184.31
2023-01-23T00:07:56.761Z,103194.66
2023-01-23T00:10:42.349Z,103188.38
2023-01-23T00:13:27.938Z,103186.94
2023-01-23T00:16:33.096Z,103189.53
2023-01-23T00:19:18.479Z,103185.09
2023-01-23T00:22:03.859Z,103192.97
2023-01-23T00:24:49.294Z,103193.91
2023-01-23T00:27:35.031Z,103187.03
2023-01-23T00:30:20.620Z,103183.94
2023-01-23T00:33:06.529Z,103178.97
2023-01-23T00:35:54.876Z,103166.81
2023-01-23T00:38:41.593Z,103180.78
2023-01-23T00:41:27.474Z,103187.56
2023-01-23T00:44:12.964Z,103189.22
2023-01-23T00:46:58.810Z,103191.19
2023-01-23T00:49:46.218Z,103198.75
2023-01-23T00:52:31.763Z,103198.06
2023-01-23T00:55:17.284Z,103202.75
2023-01-23T00:58:02.692Z,103204.94
2023-01-23T01:00:48.256Z,103199.78
2023-01-23T01:03:33.854Z,103209.38
2023-01-23T01:06:19.352Z,103208.81
2023-01-23T01:09:04.952Z,103219.41
2023-01-23T01:11:50.828Z,103225.81
2023-01-23T01:14:36.572Z,103225.72
2023-01-23T01:17:22.291Z,103224.03
2023-01-23T01:20:08.359Z,103244.44
2023-01-23T01:22:55.236Z,103244.63
2023-01-23T01:25:40.757Z,103243.81
2023-01-23T01:28:27.265Z,103237.91
2023-01-23T01:31:14.991Z,103246.88
2023-01-23T01:34:00.759Z,103230.97
2023-01-23T01:36:46.419Z,103256.34
2023-01-23T01:39:32.040Z,103255.28
2023-01-23T01:42:17.754Z,103260.97
2023-01-23T01:45:03.299Z,103251.56
2023-01-23T01:47:48.676Z,103262.06
2023-01-23T01:50:35.280Z,103260.53
2023-01-23T01:53:23.106Z,103258.56
2023-01-23T01:56:12.255Z,103263.84
2023-01-23T01:58:59.436Z,103244.09
2023-01-23T02:01:47.576Z,103262.13
2023-01-23T02:04:36.617Z,103265.47
2023-01-23T02:07:47.067Z,103271.59
2023-01-23T02:10:34.602Z,103279.09
2023-01-23T02:13:36.052Z,103273.25
2023-01-23T02:16:29.480Z,103273.41
2023-01-23T02:19:40.491Z,103275.84
2023-01-23T02:22:36.774Z,103288.16
2023-01-23T02:25:37.767Z,103283.78
2023-01-23T02:28:23.449Z,103281.16
2023-01-23T02:31:09.554Z,103284.97
2023-01-23T02:33:57.475Z,103289.16
2023-01-23T02:36:47.468Z,103292.84
2023-01-23T02:39:33.166Z,103289.34
2023-01-23T02:42:19.315Z,103300.78
2023-01-23T02:45:05.427Z,103299.09
2023-01-23T02:47:51.519Z,103292.06
2023-01-23T02:50:36.920Z,103293.56
2023-01-23T02:53:22.351Z,103295.38
2023-01-23T02:56:08.479Z,103290.91
2023-01-23T02:59:12.803Z,103282.88
2023-01-23T03:01:58.292Z,103291.03
2023-01-23T03:04:44.185Z,103297.97
2023-01-23T03:07:29.720Z,103295.25
2023-01-23T03:10:15.450Z,103288.34
2023-01-23T03:13:07.072Z,103287.56
2023-01-23T03:15:56.276Z,103285.91
2023-01-23T03:18:53.389Z,103290.94
2023-01-23T03:21:40.921Z,103280.28
2023-01-23T03:24:26.492Z,103287.28
2023-01-23T03:27:12.605Z,103280.28
2023-01-23T03:30:13.480Z,103283.66
2023-01-23T03:32:58.723Z,103278.25
2023-01-23T03:35:44.318Z,103281.00
2023-01-23T03:38:29.981Z,103282.81
2023-01-23T03:41:27.337Z,103280.38
2023-01-23T03:44:12.921Z,103287.25
2023-01-23T03:46:58.543Z,103293.53
2023-01-23T03:49:44.140Z,103295.16
2023-01-23T03:52:29.727Z,103295.03
2023-01-23T03:55:15.373Z,103296.63
2023-01-23T03:58:00.779Z,103305.53
2023-01-23T04:00:46.608Z,103303.50
2023-01-23T04:03:32.238Z,103282.59
2023-01-23T04:06:18.888Z,103297.53
2023-01-23T04:09:04.526Z,103293.19
2023-01-23T04:11:49.790Z,103307.13
2023-01-23T04:14:37.428Z,103296.75
2023-01-23T04:17:23.251Z,103306.81
2023-01-23T04:20:09.848Z,103298.00
2023-01-23T04:22:55.694Z,103293.75
2023-01-23T04:25:41.047Z,103297.31
2023-01-23T04:28:26.370Z,103288.78
2023-01-23T04:31:12.348Z,103290.63
2023-01-23T04:33:57.686Z,103298.22
2023-01-23T04:36:43.447Z,103296.72
2023-01-23T04:39:28.850Z,103296.59
2023-01-23T04:42:14.173Z,103307.81
2023-01-23T04:44:59.706Z,103298.91
2023-01-23T04:47:45.264Z,103305.03
2023-01-23T04:50:32.772Z,103321.72
2023-01-23T04:53:18.541Z,103327.59
2023-01-23T04:56:04.663Z,103332.69
2023-01-23T04:58:50.039Z,103329.88
2023-01-23T05:01:35.853Z,103328.19
2023-01-23T05:04:21.156Z,103325.88
2023-01-23T05:07:06.794Z,103329.25
2023-01-23T05:09:52.284Z,103324.09
2023-01-23T05:12:37.738Z,103330.00
2023-01-23T05:15:23.179Z,103331.09
2023-01-23T05:18:08.389Z,103328.66
2023-01-23T05:20:53.960Z,103336.91
2023-01-23T05:23:39.305Z,103328.34
2023-01-23T05:26:24.974Z,103333.59
2023-01-23T05:29:10.239Z,103335.00
2023-01-23T05:31:55.792Z,103331.66
2023-01-23T05:34:41.287Z,103336.06
2023-01-23T05:37:26.710Z,103323.69
2023-01-23T05:40:13.277Z,103343.91
2023-01-23T05:42:58.951Z,103348.19
2023-01-23T05:45:44.180Z,103346.56
2023-01-23T05:48:29.962Z,103349.25
2023-01-23T05:51:15.734Z,103356.84
2023-01-23T05:54:02.656Z,103364.66
2023-01-23T05:56:48.136Z,103368.09
2023-01-23T05:59:33.514Z,103367.16
2023-01-23T06:02:19.112Z,103370.69
2023-01-23T06:05:04.740Z,103371.56
2023-01-23T06:07:50.434Z,103368.09
2023-01-23T06:10:38.436Z,103378.44
2023-01-23T06:13:23.965Z,103377.44
2023-01-23T06:16:10.745Z,103382.75
2023-01-23T06:18:56.168Z,103378.47
2023-01-23T06:21:41.623Z,103389.44
2023-01-23T06:24:27.022Z,103394.94
2023-01-23T06:27:12.612Z,103407.03
2023-01-23T06:29:58.263Z,103403.47
2023-01-23T06:32:43.793Z,103406.38
2023-01-23T06:35:29.134Z,103408.88
2023-01-23T06:38:14.754Z,103410.41
2023-01-23T06:41:00.374Z,103421.84
2023-01-23T06:43:45.755Z,103419.22
2023-01-23T06:46:31.063Z,103430.44
2023-01-23T06:49:16.765Z,103422.66
2023-01-23T06:52:02.419Z,103415.72
2023-01-23T06:54:47.889Z,103415.81
2023-01-23T06:57:34.040Z,103433.97
2023-01-23T07:00:20.308Z,103423.50
2023-01-23T07:03:06.167Z,103440.00
2023-01-23T07:05:52.168Z,103443.28
2023-01-23T07:08:38.913Z,103444.38
2023-01-23T07:11:24.525Z,103447.75
2023-01-23T07:14:09.978Z,103449.66
2023-01-23T07:16:55.640Z,103454.09
2023-01-23T07:19:41.255Z,103467.25
2023-01-23T07:22:26.643Z,103465.91
2023-01-23T07:25:12.333Z,103471.50
2023-01-23T07:27:57.882Z,103479.13
2023-01-23T07:30:43.460Z,103480.06
2023-01-23T07:33:29.025Z,103480.06
2023-01-23T07:36:14.737Z,103477.69
2023-01-23T07:39:00.383Z,103475.88
2023-01-23T07:41:46.507Z,103470.75
2023-01-23T07:44:32.161Z,103484.72
2023-01-23T07:47:17.642Z,103481.88
2023-01-23T07:50:03.009Z,103484.50
2023-01-23T07:52:48.419Z,103484.66
2023-01-23T07:55:34.422Z,103482.91
2023-01-23T07:58:20.236Z,103480.59
2023-01-23T08:01:10.096Z,103477.66
2023-01-23T08:03:55.552Z,103464.56
2023-01-23T08:06:41.137Z,103469.94
2023-01-23T08:09:26.415Z,103466.66
2023-01-23T08:12:12.499Z,103474.78
2023-01-23T08:14:58.364Z,103482.59
2023-01-23T08:17:43.721Z,103484.38
2023-01-23T08:20:29.230Z,103481.66
2023-01-23T08:23:14.700Z,103490.44
2023-01-23T08:26:03.379Z,103502.50
2023-01-23T08:28:48.900Z,103493.78
2023-01-23T08:31:35.905Z,103503.09
2023-01-23T08:34:22.023Z,103500.88
2023-01-23T08:37:07.724Z,103505.31
2023-01-23T08:39:53.518Z,103509.53
2023-01-23T08:42:38.857Z,103521.72
2023-01-23T08:45:25.412Z,103508.09
2023-01-23T08:48:11.055Z,103506.25
2023-01-23T08:51:04.154Z,103514.91
2023-01-23T08:53:52.703Z,103516.09
2023-01-23T08:56:38.268Z,103511.75
2023-01-23T08:59:23.744Z,103514.28
2023-01-23T09:02:11.822Z,103509.09
2023-01-23T09:04:57.241Z,103505.59
2023-01-23T09:07:42.600Z,103513.53
2023-01-23T09:10:27.902Z,103520.81
2023-01-23T09:13:13.680Z,103521.66
2023-01-23T09:15:59.137Z,103526.16
2023-01-23T09:18:44.674Z,103518.41
2023-01-23T09:21:30.195Z,103520.88
2023-01-23T09:24:16.739Z,103525.25
2023-01-23T09:27:02.419Z,103537.53
2023-01-23T09:29:49.112Z,103541.53
2023-01-23T09:32:34.974Z,103548.69
2023-01-23T09:35:20.840Z,103548.09
2023-01-23T09:38:07.600Z,103547.19
2023-01-23T09:40:56.205Z,103550.63
2023-01-23T09:43:57.787Z,103554.13
2023-01-23T09:46:52.016Z,103555.13
2023-01-23T09:49:58.416Z,103551.69
2023-01-23T09:52:54.268Z,103549.06
2023-01-23T09:55:44.197Z,103542.88
2023-01-23T09:58:58.183Z,103550.63
2023-01-23T10:01:43.996Z,103549.22
2023-01-23T10:04:31.456Z,103547.38
2023-01-23T10:07:30.819Z,103556.03
2023-01-23T10:10:36.677Z,103560.25
2023-01-23T10:13:43.962Z,103560.56
2023-01-23T10:16:49.572Z,103556.78
2023-01-23T10:19:48.639Z,103556.09
2023-01-23T10:22:55.225Z,103550.69
2023-01-23T10:25:41.310Z,103561.38
2023-01-23T10:28:32.277Z,103556.66
2023-01-23T10:31:39.695Z,103557.25
2023-01-23T10:34:47.416Z,103557.47
2023-01-23T10:38:00.502Z,103542.44
2023-01-23T10:41:06.434Z,103555.06
2023-01-23T10:43:53.849Z,103556.03
2023-01-23T10:46:46.652Z,103562.81
2023-01-23T10:49:39.989Z,103557.50
2023-01-23T10:52:32.579Z,103558.84
2023-01-23T10:55:23.624Z,103561.66
2023-01-23T10:58:29.531Z,103563.06
2023-01-23T11:01:30.439Z,103558.16
2023-01-23T11:04:21.495Z,103544.22
2023-01-23T11:07:16.171Z,103559.94
2023-01-23T11:10:18.149Z,103558.34
2023-01-23T11:13:03.866Z,103557.41
2023-01-23T11:15:49.376Z,103559.31
2023-01-23T11:18:42.471Z,103565.16
2023-01-23T11:21:30.073Z,103556.72
2023-01-23T11:24:41.117Z,103559.25
2023-01-23T11:27:30.817Z,103558.09
2023-01-23T11:30:31.564Z,103561.84
2023-01-23T11:33:36.355Z,103562.84
2023-01-23T11:36:24.304Z,103563.50
2023-01-23T11:39:32.302Z,103562.72
2023-01-23T11:42:19.537Z,103546.66
2023-01-23T11:45:13.057Z,103561.06
2023-01-23T11:48:10.638Z,103562.13
2023-01-23T11:51:05.346Z,103556.53
2023-01-23T11:54:12.806Z,103557.16
2023-01-23T11:57:05.587Z,103542.59
2023-01-23T12:00:07.312Z,103546.63
2023-01-23T12:03:33.357Z,103540.47
2023-01-23T12:06:34.481Z,103541.50
2023-01-23T12:09:21.946Z,103533.22
2023-01-23T12:12:44.835Z,103535.34
2023-01-23T12:16:07.953Z,103531.72
2023-01-23T12:19:17.326Z,103523.22
2023-01-23T12:22:22.811Z,103515.25
2023-01-23T12:25:23.068Z,103512.50
2023-01-23T12:28:26.865Z,103530.50
2023-01-23T12:31:28.960Z,103518.25
2023-01-23T12:34:35.785Z,103532.38
2023-01-23T12:37:48.139Z,103527.28
2023-01-23T12:40:41.152Z,103539.34
2023-01-23T12:43:40.031Z,103535.16
2023-01-23T12:46:34.160Z,103543.28
2023-01-23T12:49:29.675Z,103543.63
2023-01-23T12:52:23.718Z,103549.56
2023-01-23T12:55:25.787Z,103544.13
2023-01-23T12:58:17.603Z,103531.44
2023-01-23T13:01:30.388Z,103551.72
2023-01-23T13:04:28.283Z,103541.16
2023-01-23T13:07:16.533Z,103548.97
2023-01-23T13:10:26.516Z,103543.94
2023-01-23T13:13:11.894Z,103547.53
2023-01-23T13:16:15.313Z,103546.66
2023-01-23T13:19:33.769Z,103556.28
2023-01-23T13:22:32.757Z,103560.44
2023-01-23T13:25:19.651Z,103547.72
2023-01-23T13:28:27.693Z,103564.97
2023-01-23T13:31:25.996Z,103559.94
2023-01-23T13:34:31.370Z,103566.75
2023-01-23T13:37:28.544Z,103577.09
2023-01-23T13:40:16.647Z,103578.41
2023-01-23T13:43:41.870Z,103576.94
2023-01-23T14:25:17.962Z,103574.44
2023-01-23T14:28:05.524Z,103587.31
2023-01-23T14:30:56.596Z,103585.47
2023-01-23T14:33:43.748Z,103592.19
2023-01-23T14:36:32.056Z,103588.69
2023-01-23T14:39:23.017Z,103594.84
2023-01-23T14:42:16.515Z,103594.00
2023-01-23T14:45:06.004Z,103599.84
2023-01-23T14:48:04.533Z,103602.31
2023-01-23T14:51:02.263Z,103601.38
2023-01-23T14:53:56.832Z,103593.38
2023-01-23T14:56:43.905Z,103596.44
2023-01-23T14:59:35.882Z,103597.53
2023-01-23T15:02:34.447Z,103593.16
2023-01-23T15:05:27.352Z,103593.38
2023-01-23T15:08:26.709Z,103596.00
2023-01-23T15:11:13.006Z,103581.00
2023-01-23T15:14:02.147Z,103586.50
2023-01-23T15:16:47.514Z,103572.69
2023-01-23T15:19:36.417Z,103574.75
2023-01-23T15:22:29.661Z,103575.69
2023-01-23T15:25:28.597Z,103574.91
2023-01-23T15:28:31.627Z,103569.47
2023-01-23T15:31:41.393Z,103573.63
2023-01-23T15:34:29.089Z,103572.19
2023-01-23T15:37:14.361Z,103573.91
2023-01-23T15:40:02.710Z,103573.91
2023-01-23T15:43:11.793Z,103575.72
2023-01-23T15:45:57.190Z,103569.56
2023-01-23T15:48:42.626Z,103564.19
2023-01-23T15:51:27.924Z,103565.91
2023-01-23T15:54:26.478Z,103565.59
2023-01-23T15:57:13.760Z,103567.97
2023-01-23T16:00:00.149Z,103568.88
2023-01-23T16:02:55.672Z,103578.66
2023-01-23T16:05:42.118Z,103572.31
2023-01-23T16:08:27.762Z,103567.03
2023-01-23T16:11:13.156Z,103574.84
2023-01-23T16:13:58.375Z,103569.13
2023-01-23T16:16:43.893Z,103560.22
2023-01-23T16:19:29.257Z,103567.09
2023-01-23T16:22:22.480Z,103555.00
2023-01-23T16:25:17.982Z,103572.41
2023-01-23T16:28:03.523Z,103572.59
2023-01-23T16:30:50.656Z,103571.63
2023-01-23T16:33:36.144Z,103562.22
2023-01-23T16:36:21.412Z,103567.44
2023-01-23T16:39:10.623Z,103560.16
2023-01-23T16:41:55.984Z,103568.03
2023-01-23T16:44:41.610Z,103576.69
2023-01-23T16:47:27.096Z,103575.91
2023-01-23T16:50:15.248Z,103577.50
2023-01-23T16:53:09.448Z,103579.94
2023-01-23T16:55:56.713Z,103583.56
2023-01-23T16:58:42.073Z,103580.81
2023-01-23T17:01:29.424Z,103586.81
2023-01-23T17:04:18.968Z,103578.34
2023-01-23T17:07:09.446Z,103580.81
2023-01-23T17:09:54.686Z,103585.28
2023-01-23T17:12:40.086Z,103589.78
2023-01-23T17:15:30.634Z,103591.78
2023-01-23T17:18:47.581Z,103600.53
2023-01-23T17:21:34.646Z,103609.22
2023-01-23T17:24:20.208Z,103604.19
2023-01-23T17:27:05.641Z,103603.78
2023-01-23T17:29:51.477Z,103595.28
2023-01-23T17:32:37.293Z,103610.09
2023-01-23T17:35:31.387Z,103619.75
2023-01-23T17:38:19.967Z,103611.16
2023-01-23T17:41:06.477Z,103618.78
2023-01-23T17:43:52.712Z,103623.41
2023-01-23T17:46:39.413Z,103622.53
2023-01-23T17:49:33.700Z,103615.63
2023-01-23T17:52:21.534Z,103615.66
2023-01-23T17:55:13.515Z,103613.25
2023-01-23T17:57:58.865Z,103612.38
2023-01-23T18:00:48.697Z,103607.19
2023-01-23T18:03:34.637Z,103618.09
2023-01-23T18:06:20.337Z,103618.97
2023-01-23T18:09:05.940Z,103632.91
2023-01-23T18:11:54.941Z,103627.78
2023-01-23T18:14:59.035Z,103633.66
2023-01-23T18:18:10.706Z,103632.97
2023-01-23T18:20:57.119Z,103630.44
2023-01-23T18:23:42.970Z,103626.91
2023-01-23T18:26:43.266Z,103638.91
2023-01-23T18:29:30.336Z,103637.59
2023-01-23T18:32:34.795Z,103636.91
2023-01-23T18:35:32.264Z,103635.44
2023-01-23T18:38:51.704Z,103637.31
2023-01-23T18:41:53.060Z,103646.81
2023-01-23T18:44:42.496Z,103645.13
2023-01-23T18:47:28.098Z,103645.06
2023-01-23T18:50:19.299Z,103650.09
2023-01-23T18:53:17.481Z,103657.91
2023-01-23T18:56:05.778Z,103662.09
2023-01-23T18:59:12.400Z,103664.44
2023-01-23T19:02:13.876Z,103667.31
2023-01-23T19:05:12.272Z,103671.41
2023-01-23T19:07:59.716Z,103671.38
2023-01-23T19:10:49.251Z,103665.66
2023-01-23T19:13:56.660Z,103658.47
2023-01-23T19:16:48.724Z,103658.63
2023-01-23T19:19:45.099Z,103663.81
2023-01-23T19:22:45.795Z,103680.25
2023-01-23T19:25:31.468Z,103661.97
2023-01-23T19:28:17.114Z,103674.00
2023-01-23T19:31:02.693Z,103676.44
2023-01-23T19:33:48.810Z,103683.59
2023-01-23T19:36:36.827Z,103671.41
2023-01-23T19:39:22.232Z,103675.50
2023-01-23T19:42:13.874Z,103670.50
2023-01-23T19:44:59.307Z,103669.34
2023-01-23T19:47:45.219Z,103670.16
2023-01-23T19:50:30.463Z,103670.22
2023-01-23T19:53:17.156Z,103675.50
2023-01-23T19:56:02.508Z,103676.25
2023-01-23T19:58:48.273Z,103674.50
2023-01-23T20:01:41.098Z,103677.22
2023-01-23T20:04:26.713Z,103674.50
2023-01-23T20:07:12.669Z,103661.38
2023-01-23T20:09:58.461Z,103664.78
2023-01-23T20:12:51.847Z,103666.66
2023-01-23T20:15:37.691Z,103674.72
2023-01-23T20:18:23.090Z,103672.81
2023-01-23T20:21:08.545Z,103667.50
2023-01-23T20:23:54.214Z,103678.88
2023-01-23T20:26:40.056Z,103677.78
2023-01-23T20:29:25.905Z,103669.38
2023-01-23T20:32:11.435Z,103677.50
2023-01-23T20:34:57.277Z,103680.88
2023-01-23T20:37:42.901Z,103670.69
2023-01-23T20:40:28.203Z,103669.75
2023-01-23T20:43:13.906Z,103666.13
2023-01-23T20:45:59.543Z,103669.78
2023-01-23T20:48:45.337Z,103666.00
2023-01-23T20:51:30.679Z,103678.41
2023-01-23T20:54:16.073Z,103675.09
2023-01-23T20:57:01.519Z,103670.75
2023-01-23T20:59:47.563Z,103672.69
2023-01-23T21:02:33.871Z,103668.22
2023-01-23T21:05:19.716Z,103673.63
2023-01-23T21:08:05.228Z,103680.53
2023-01-23T21:10:52.506Z,103681.34
2023-01-23T21:13:37.944Z,103683.41
2023-01-23T21:16:23.375Z,103686.44
2023-01-23T21:19:09.728Z,103693.63
2023-01-23T21:21:55.499Z,103682.28
2023-01-23T21:24:40.996Z,103683.09
2023-01-23T21:27:26.284Z,103684.81
2023-01-23T21:30:12.252Z,103688.34
2023-01-23T21:32:57.768Z,103686.47
2023-01-23T21:35:48.093Z,103697.78
2023-01-23T21:38:33.619Z,103697.88
2023-01-23T21:41:19.572Z,103687.19
2023-01-23T21:44:05.301Z,103694.75
2023-01-23T21:46:50.859Z,103689.00
2023-01-23T21:49:36.374Z,103682.91
2023-01-23T21:52:21.837Z,103689.78
2023-01-23T21:55:08.051Z,103698.44
2023-01-23T21:57:53.438Z,103701.41
2023-01-23T22:00:57.130Z,103708.34
2023-01-23T22:03:43.096Z,103698.41
2023-01-23T22:06:29.494Z,103711.38
2023-01-23T22:09:17.796Z,103709.38
2023-01-23T22:12:03.150Z,103707.00
2023-01-23T22:14:48.483Z,103712.88
2023-01-23T22:17:34.542Z,103711.38
2023-01-23T22:20:20.447Z,103714.22
2023-01-23T22:23:06.066Z,103707.88
2023-01-23T22:25:55.276Z,103705.38
2023-01-23T22:28:40.947Z,103693.16
2023-01-23T22:31:26.245Z,103699.63
2023-01-23T22:34:11.879Z,103697.94
2023-01-23T22:36:57.490Z,103695.53
2023-01-23T22:39:44.037Z,103707.88
2023-01-23T22:42:29.720Z,103704.25
2023-01-23T22:45:15.298Z,103698.88
2023-01-23T22:48:01.171Z,103708.59
2023-01-23T22:50:46.500Z,103712.19
2023-01-23T22:53:32.171Z,103711.28
2023-01-23T22:56:17.796Z,103706.97
2023-01-23T22:59:03.380Z,103712.28
2023-01-23T23:01:48.943Z,103705.19
2023-01-23T23:04:34.414Z,103717.41
2023-01-23T23:07:19.839Z,103720.06
2023-01-23T23:10:09.356Z,103716.66
2023-01-23T23:12:54.632Z,103701.00
2023-01-23T23:15:40.508Z,103711.38
2023-01-23T23:18:25.838Z,103714.19
2023-01-23T23:21:14.354Z,103715.81
2023-01-23T23:24:00.578Z,103714.75
2023-01-23T23:26:46.091Z,103708.59
2023-01-23T23:29:31.465Z,103716.44
2023-01-23T23:32:16.895Z,103697.66
2023-01-23T23:35:02.521Z,103693.81
2023-01-23T23:37:47.872Z,103689.03
2023-01-23T23:40:33.043Z,103694.38
2023-01-23T23:43:18.446Z,103697.00
2023-01-23T23:46:06.766Z,103690.28
2023-01-23T23:48:52.159Z,103683.97
2023-01-23T23:51:37.576Z,103672.25
2023-01-23T23:54:23.176Z,103694.44
2023-01-23T23:57:08.805Z,103689.38
2023-01-23T23:59:54.397Z,103684.44
